Time;durP1;ratioP1;P1;durP2;ratioP2;P2;SDS_P1;SDS_P2;PMS_P1;PMS_P2;Temp;Humidity;BMP_temperature;BMP_pressure;BME280_temperature;BME280_humidity;BME280_pressure;Samples;Min_cycle;Max_cycle;Signal;HPM_P1;HPM_P2
2023/01/15 00:00:59;;;;;;;5.07;2.57;;;4.00;99.90;;;;;;5025532;28;20465;-75
2023/01/15 00:03:27;;;;;;;8.60;4.20;;;3.90;99.90;;;;;;5029241;28;20445;-75
2023/01/15 00:05:54;;;;;;;3.13;2.83;;;3.80;99.90;;;;;;5023043;28;20989;-75
2023/01/15 00:08:21;;;;;;;3.53;3.20;;;3.90;99.90;;;;;;5029832;28;20993;-75
2023/01/15 00:10:48;;;;;;;3.90;1.90;;;3.90;99.90;;;;;;5025968;28;20925;-75
2023/01/15 00:13:15;;;;;;;3.77;2.50;;;3.80;99.90;;;;;;5025972;28;20546;-75
2023/01/15 00:15:42;;;;;;;3.83;2.20;;;3.90;99.90;;;;;;5020609;28;20994;-75
2023/01/15 00:18:09;;;;;;;2.70;1.97;;;4.00;99.90;;;;;;5025923;28;20554;-75
2023/01/15 00:20:38;;;;;;;3.67;2.60;;;4.00;99.90;;;;;;5022057;28;20944;-75
2023/01/15 00:23:05;;;;;;;4.63;2.80;;;4.00;99.90;;;;;;5022124;28;20466;-75
2023/01/15 00:28:16;;;;;;;4.70;2.50;;;4.20;99.90;;;;;;5025061;28;20424;-75
2023/01/15 00:30:43;;;;;;;6.00;4.77;;;4.30;99.90;;;;;;5022261;28;20852;-75
2023/01/15 00:33:10;;;;;;;4.73;4.27;;;4.40;99.90;;;;;;5027531;28;20485;-75
2023/01/15 00:35:38;;;;;;;4.87;2.97;;;4.40;99.90;;;;;;5026404;28;21209;-75
2023/01/15 00:38:05;;;;;;;6.00;4.03;;;4.30;99.90;;;;;;5027941;28;20845;-75
2023/01/15 00:40:32;;;;;;;4.67;4.20;;;4.20;99.90;;;;;;5025186;28;20535;-75
2023/01/15 00:42:59;;;;;;;6.10;4.33;;;4.10;99.90;;;;;;5026811;28;20606;-75
2023/01/15 00:45:26;;;;;;;8.87;4.40;;;4.00;99.90;;;;;;5025198;28;20450;-75
2023/01/15 00:47:53;;;;;;;8.70;4.80;;;3.90;99.90;;;;;;5021048;28;20934;-75
2023/01/15 00:50:20;;;;;;;5.87;4.43;;;3.70;99.90;;;;;;5024930;28;20482;-75
2023/01/15 00:52:48;;;;;;;6.77;5.17;;;3.70;99.90;;;;;;5023855;28;20489;-74
2023/01/15 00:55:15;;;;;;;5.03;3.90;;;3.80;99.90;;;;;;5024673;28;20579;-75
2023/01/15 00:57:42;;;;;;;6.60;5.30;;;3.70;99.90;;;;;;5022965;28;20485;-75
2023/01/15 01:00:11;;;;;;;5.17;4.67;;;3.60;99.90;;;;;;5022710;28;20234;-75
2023/01/15 01:02:38;;;;;;;6.33;4.40;;;3.50;99.90;;;;;;5021468;28;20464;-75
2023/01/15 01:05:05;;;;;;;6.23;5.57;;;3.50;99.90;;;;;;5024079;28;20586;-75
2023/01/15 01:07:32;;;;;;;5.97;4.53;;;3.50;99.90;;;;;;5024718;28;20497;-75
2023/01/15 01:10:01;;;;;;;6.80;5.60;;;3.40;99.90;;;;;;5023765;28;20493;-75
2023/01/15 01:12:28;;;;;;;6.73;5.40;;;3.40;99.90;;;;;;5023645;28;20498;-75
2023/01/15 01:14:55;;;;;;;7.40;4.27;;;3.50;99.90;;;;;;5026389;28;20489;-75
2023/01/15 01:17:22;;;;;;;5.30;4.23;;;3.40;99.90;;;;;;5016917;28;20555;-75
2023/01/15 01:19:48;;;;;;;4.80;4.20;;;3.40;99.90;;;;;;5020772;28;20913;-75
2023/01/15 01:22:15;;;;;;;4.53;4.13;;;3.40;99.90;;;;;;5021342;28;20584;-75
2023/01/15 01:24:42;;;;;;;5.60;3.80;;;3.50;99.90;;;;;;5024099;28;20558;-75
2023/01/15 01:27:11;;;;;;;4.63;3.33;;;3.60;99.90;;;;;;5023480;28;20449;-75
2023/01/15 01:29:37;;;;;;;7.27;2.47;;;3.60;99.90;;;;;;5021371;28;20486;-75
2023/01/15 01:32:05;;;;;;;1.90;1.17;;;3.70;99.90;;;;;;5024958;28;20447;-75
2023/01/15 01:34:33;;;;;;;4.27;2.07;;;3.80;99.90;;;;;;5024089;28;20533;-75
2023/01/15 01:37:00;;;;;;;4.37;2.20;;;3.80;99.90;;;;;;5023399;28;20495;-75
2023/01/15 01:39:27;;;;;;;3.30;1.70;;;3.80;99.90;;;;;;5025038;28;20505;-75
2023/01/15 01:41:54;;;;;;;2.60;1.47;;;3.80;99.90;;;;;;5022223;28;20489;-75
2023/01/15 01:45:00;;;;;;;1.73;1.00;;;3.80;99.90;;;;;;5026282;28;20450;-75
2023/01/15 01:47:29;;;;;;;2.70;1.43;;;3.80;99.90;;;;;;5020393;28;20473;-75
2023/01/15 01:50:03;;;;;;;1.20;0.90;;;3.90;99.90;;;;;;5024549;28;20491;-75
2023/01/15 01:52:33;;;;;;;4.40;1.97;;;3.90;99.90;;;;;;5024990;28;20496;-75
2023/01/15 01:55:02;;;;;;;3.10;1.30;;;3.90;99.90;;;;;;5023281;28;20465;-75
2023/01/15 01:57:29;;;;;;;2.40;1.47;;;3.80;99.90;;;;;;5021554;28;20301;-75
2023/01/15 02:00:01;;;;;;;2.47;1.00;;;3.80;99.90;;;;;;5022169;28;20486;-75
2023/01/15 02:02:28;;;;;;;2.70;1.00;;;3.80;99.90;;;;;;5022854;28;20869;-75
2023/01/15 02:04:55;;;;;;;8.43;1.93;;;3.90;99.90;;;;;;5015931;28;20942;-75
2023/01/15 02:07:22;;;;;;;2.57;1.87;;;4.00;99.90;;;;;;5023228;28;20551;-75
2023/01/15 02:09:49;;;;;;;4.50;1.50;;;4.10;99.90;;;;;;5020436;28;20513;-75
2023/01/15 02:12:24;;;;;;;2.20;1.80;;;4.00;99.90;;;;;;5020336;28;20527;-75
2023/01/15 02:15:00;;;;;;;2.53;1.70;;;4.00;99.90;;;;;;5021068;28;20515;-75
2023/01/15 02:17:35;;;;;;;3.20;1.67;;;3.90;99.90;;;;;;5021773;28;20560;-75
2023/01/15 02:20:20;;;;;;;1.40;1.30;;;3.80;99.90;;;;;;5022657;28;20457;-75
2023/01/15 02:23:02;;;;;;;2.10;1.53;;;3.80;99.90;;;;;;5020795;28;20498;-75
2023/01/15 02:25:39;;;;;;;6.85;1.98;;;3.80;99.90;;;;;;5020311;28;20481;-75
2023/01/15 02:28:14;;;;;;;3.43;1.20;;;3.80;99.90;;;;;;5021575;28;20285;-75
2023/01/15 02:30:46;;;;;;;3.20;1.87;;;3.80;99.90;;;;;;5022031;28;20507;-75
2023/01/15 02:33:18;;;;;;;3.90;1.30;;;3.80;99.90;;;;;;5023028;28;20547;-75
2023/01/15 02:35:48;;;;;;;2.65;1.17;;;3.80;99.90;;;;;;5018013;28;20510;-75
2023/01/15 02:38:18;;;;;;;4.07;1.90;;;3.70;99.90;;;;;;5021499;28;20312;-75
2023/01/15 02:40:46;;;;;;;2.87;2.53;;;3.70;99.90;;;;;;5022945;28;20527;-75
2023/01/15 02:43:17;;;;;;;4.70;2.17;;;3.70;99.90;;;;;;5021519;28;20517;-75
2023/01/15 02:45:50;;;;;;;5.70;3.00;;;3.60;99.90;;;;;;5017790;28;20501;-75
2023/01/15 02:48:20;;;;;;;4.00;2.20;;;3.60;99.90;;;;;;5022654;28;20472;-75
2023/01/15 02:50:51;;;;;;;4.97;1.93;;;3.60;99.90;;;;;;5021641;28;20454;-75
2023/01/15 02:53:24;;;;;;;2.53;1.87;;;3.50;99.90;;;;;;5016940;28;20835;-75
2023/01/15 02:55:54;;;;;;;3.73;1.83;;;3.60;99.90;;;;;;5017380;28;20844;-75
2023/01/15 02:58:26;;;;;;;3.90;1.97;;;3.60;99.90;;;;;;5021272;28;20544;-75
2023/01/15 03:00:55;;;;;;;3.63;1.88;;;3.50;99.90;;;;;;5021365;28;20607;-75
2023/01/15 03:03:30;;;;;;;3.47;1.85;;;3.60;99.90;;;;;;5020729;28;20304;-75
2023/01/15 03:06:01;;;;;;;4.47;2.80;;;3.60;99.90;;;;;;5018883;28;20886;-75
2023/01/15 03:08:29;;;;;;;1.80;1.53;;;3.60;99.90;;;;;;5020706;28;20833;-75
2023/01/15 03:11:05;;;;;;;2.90;1.90;;;3.40;99.90;;;;;;5019847;28;20560;-75
2023/01/15 03:13:44;;;;;;;5.57;2.20;;;3.40;99.90;;;;;;5020155;28;20463;-75
2023/01/15 03:16:37;;;;;;;4.60;2.50;;;3.50;99.90;;;;;;5019594;28;20525;-75
2023/01/15 03:19:13;;;;;;;2.77;1.97;;;3.50;99.90;;;;;;5023157;28;20536;-74
2023/01/15 03:21:47;;;;;;;4.77;2.80;;;3.40;99.90;;;;;;5019308;28;20532;-75
2023/01/15 03:24:19;;;;;;;3.13;2.50;;;3.40;99.90;;;;;;5017579;28;20489;-75
2023/01/15 03:26:46;;;;;;;5.40;2.93;;;3.30;99.90;;;;;;5018645;28;20791;-75
2023/01/15 03:29:15;;;;;;;4.10;3.33;;;3.50;99.90;;;;;;5020025;28;20489;-75
2023/01/15 03:31:43;;;;;;;8.37;3.57;;;3.40;99.90;;;;;;5020319;28;20488;-75
2023/01/15 03:34:11;;;;;;;4.20;3.40;;;3.50;99.90;;;;;;5020469;28;20525;-75
2023/01/15 03:36:38;;;;;;;3.10;2.80;;;3.50;99.90;;;;;;5021131;28;20494;-75
2023/01/15 03:39:05;;;;;;;3.70;2.87;;;3.50;99.90;;;;;;5021100;28;20840;-75
2023/01/15 03:41:44;;;;;;;3.90;3.33;;;3.60;99.90;;;;;;5021457;28;20515;-74
2023/01/15 03:44:22;;;;;;;8.10;3.50;;;3.60;99.90;;;;;;5015539;28;20562;-74
2023/01/15 03:47:03;;;;;;;3.43;2.53;;;3.70;99.90;;;;;;5027694;28;20473;-75
2023/01/15 03:49:40;;;;;;;2.53;2.27;;;3.70;99.90;;;;;;5026739;28;20477;-74
2023/01/15 03:52:16;;;;;;;5.67;2.80;;;3.80;99.90;;;;;;5024653;28;20460;-75
2023/01/15 03:54:49;;;;;;;5.50;2.60;;;3.70;99.90;;;;;;5023384;28;20481;-74
2023/01/15 03:57:27;;;;;;;4.07;3.03;;;3.80;99.90;;;;;;5030248;28;20956;-74
2023/01/15 03:59:58;;;;;;;2.50;2.30;;;3.80;99.90;;;;;;5022543;28;20448;-74
2023/01/15 04:02:28;;;;;;;4.70;3.10;;;3.70;99.90;;;;;;5025269;28;20550;-75
2023/01/15 04:04:57;;;;;;;2.70;2.50;;;3.80;99.90;;;;;;5023566;28;20528;-74
2023/01/15 04:07:25;;;;;;;4.57;2.80;;;3.70;99.90;;;;;;5024250;28;20488;-75
2023/01/15 04:09:52;;;;;;;4.40;4.00;;;3.70;99.90;;;;;;5024111;28;20527;-74
2023/01/15 04:12:19;;;;;;;4.70;2.90;;;3.70;99.90;;;;;;5022695;28;20855;-74
2023/01/15 04:14:46;;;;;;;5.50;2.90;;;3.80;99.90;;;;;;5022648;28;20509;-74
2023/01/15 04:17:14;;;;;;;3.90;3.33;;;3.80;99.90;;;;;;5028001;28;20524;-74
2023/01/15 04:19:43;;;;;;;6.13;3.27;;;3.80;99.90;;;;;;5024444;28;20481;-74
2023/01/15 04:22:10;;;;;;;12.30;3.50;;;3.80;99.90;;;;;;5021258;28;20894;-75
2023/01/15 04:24:37;;;;;;;5.70;3.17;;;3.70;99.90;;;;;;5026369;28;20493;-74
2023/01/15 04:27:04;;;;;;;6.07;3.90;;;3.70;99.90;;;;;;5021207;28;20539;-74
2023/01/15 04:29:31;;;;;;;7.67;4.07;;;3.70;99.90;;;;;;5024122;28;20806;-74
2023/01/15 04:31:58;;;;;;;5.67;3.53;;;3.70;99.90;;;;;;5022887;28;20946;-74
2023/01/15 04:34:28;;;;;;;5.77;3.50;;;3.60;99.90;;;;;;5025650;28;20480;-74
2023/01/15 04:36:55;;;;;;;3.20;2.28;;;3.60;99.90;;;;;;5020633;28;20580;-74
2023/01/15 04:39:22;;;;;;;3.43;2.90;;;3.60;99.90;;;;;;5025254;28;20211;-74
2023/01/15 04:44:34;;;;;;;5.10;2.73;;;3.80;99.90;;;;;;5024511;28;20349;-74
2023/01/15 04:47:02;;;;;;;2.67;2.47;;;3.80;99.90;;;;;;5019674;28;20454;-74
2023/01/15 04:49:31;;;;;;;7.10;3.50;;;3.80;99.90;;;;;;5025290;28;20784;-74
2023/01/15 04:51:58;;;;;;;2.77;1.97;;;3.90;99.90;;;;;;5023325;28;20521;-75
2023/01/15 04:54:25;;;;;;;2.47;2.27;;;3.90;99.90;;;;;;5022382;28;20497;-75
2023/01/15 04:56:54;;;;;;;3.07;1.90;;;4.00;99.90;;;;;;5021293;28;21028;-74
2023/01/15 04:59:23;;;;;;;3.73;2.60;;;4.00;99.90;;;;;;5024019;28;20972;-74
2023/01/15 05:01:51;;;;;;;3.27;1.90;;;3.90;99.90;;;;;;5020704;28;20489;-74
2023/01/15 05:04:18;;;;;;;5.67;3.20;;;3.90;99.90;;;;;;5026261;28;20485;-74
2023/01/15 05:06:46;;;;;;;5.30;3.27;;;3.80;99.90;;;;;;5017619;28;20855;-75
2023/01/15 05:09:13;;;;;;;9.33;4.00;;;3.70;99.90;;;;;;5024943;28;20877;-74
2023/01/15 05:11:40;;;;;;;5.37;3.33;;;3.70;99.90;;;;;;5022256;28;20551;-74
2023/01/15 05:14:07;;;;;;;3.43;3.13;;;3.60;99.90;;;;;;5021221;28;20468;-74
2023/01/15 05:16:37;;;;;;;7.47;3.47;;;3.50;99.90;;;;;;5021667;28;20505;-75
2023/01/15 05:19:06;;;;;;;3.53;2.60;;;3.60;99.90;;;;;;5025563;28;20453;-75
2023/01/15 05:21:35;;;;;;;5.00;3.57;;;3.70;99.90;;;;;;5025013;28;20458;-75
2023/01/15 05:24:07;;;;;;;4.53;3.50;;;3.70;99.90;;;;;;5022006;28;20461;-74
2023/01/15 05:26:35;;;;;;;3.37;3.07;;;3.70;99.90;;;;;;5024768;28;20848;-74
2023/01/15 05:29:03;;;;;;;4.70;3.10;;;3.60;99.90;;;;;;5022903;28;20601;-74
2023/01/15 05:31:32;;;;;;;4.00;3.07;;;3.80;99.90;;;;;;5023070;28;20583;-74
2023/01/15 05:33:59;;;;;;;4.83;3.80;;;3.70;99.90;;;;;;5016688;28;20672;-74
2023/01/15 05:36:29;;;;;;;4.00;3.20;;;3.60;99.90;;;;;;5023632;28;20583;-75
2023/01/15 05:38:58;;;;;;;5.55;3.85;;;3.70;99.90;;;;;;5019657;28;20547;-74
2023/01/15 05:44:12;;;;;;;2.70;2.50;;;3.80;99.90;;;;;;5021929;28;20449;-75
2023/01/15 05:46:41;;;;;;;3.47;2.87;;;3.80;99.90;;;;;;5023004;28;20450;-74
2023/01/15 05:49:11;;;;;;;4.30;2.50;;;3.80;99.90;;;;;;5025963;28;20481;-74
2023/01/15 05:51:38;;;;;;;4.50;3.00;;;3.80;99.90;;;;;;5017356;28;20532;-74
2023/01/15 05:54:08;;;;;;;4.70;3.00;;;3.90;99.90;;;;;;5022446;28;20547;-74
2023/01/15 05:56:37;;;;;;;4.30;3.17;;;3.80;99.90;;;;;;5024131;28;20603;-75
2023/01/15 05:59:05;;;;;;;2.77;2.53;;;3.90;99.90;;;;;;5019080;28;20486;-75
2023/01/15 06:01:32;;;;;;;2.43;2.23;;;3.90;99.90;;;;;;5024111;28;20504;-75
2023/01/15 06:04:00;;;;;;;6.30;3.00;;;4.00;99.90;;;;;;5022939;28;20500;-75
2023/01/15 06:06:27;;;;;;;4.70;2.33;;;4.00;99.90;;;;;;5020047;28;20501;-74
2023/01/15 06:08:54;;;;;;;3.30;2.50;;;3.90;99.90;;;;;;5020601;28;20872;-74
2023/01/15 06:11:21;;;;;;;2.53;2.33;;;3.90;99.90;;;;;;5021478;28;20967;-74
2023/01/15 06:13:49;;;;;;;2.30;1.50;;;4.00;99.90;;;;;;5025051;28;20782;-74
2023/01/15 06:16:17;;;;;;;4.10;2.03;;;4.00;99.90;;;;;;5019536;28;21067;-75
2023/01/15 06:18:45;;;;;;;3.57;2.47;;;4.00;99.90;;;;;;5023173;28;20810;-75
2023/01/15 06:21:13;;;;;;;1.73;1.20;;;4.00;99.90;;;;;;5022132;28;20708;-74
2023/01/15 06:23:40;;;;;;;2.50;1.40;;;4.00;99.90;;;;;;5018575;28;20559;-75
2023/01/15 06:26:11;;;;;;;1.53;1.30;;;4.00;99.90;;;;;;5018727;28;20515;-74
2023/01/15 06:28:38;;;;;;;1.63;1.33;;;4.10;99.90;;;;;;5021875;28;20474;-75
2023/01/15 06:31:07;;;;;;;1.70;1.40;;;4.00;99.90;;;;;;5023225;28;20509;-75
2023/01/15 06:33:35;;;;;;;3.45;1.70;;;4.00;99.90;;;;;;5023408;28;20485;-75
2023/01/15 06:36:04;;;;;;;1.63;1.53;;;3.90;99.90;;;;;;5018153;28;20239;-75
2023/01/15 06:38:31;;;;;;;5.47;1.83;;;3.90;99.90;;;;;;5020812;28;20485;-75
2023/01/15 06:40:59;;;;;;;4.50;1.70;;;3.90;99.90;;;;;;5019279;28;20905;-74
2023/01/15 06:48:57;;;;;;;3.20;1.97;;;4.00;99.90;;;;;;5032004;28;20490;-74
2023/01/15 06:51:24;;;;;;;3.57;1.30;;;4.00;99.90;;;;;;5016482;28;20457;-75
2023/01/15 06:53:51;;;;;;;5.37;1.70;;;3.90;99.90;;;;;;5021811;28;20456;-75
2023/01/15 06:56:18;;;;;;;2.07;1.20;;;4.00;99.90;;;;;;5021610;28;20543;-75
2023/01/15 06:58:45;;;;;;;1.50;1.37;;;4.00;99.90;;;;;;5016335;28;20520;-75
2023/01/15 07:01:15;;;;;;;3.23;1.97;;;4.00;99.90;;;;;;5019534;28;20678;-74
2023/01/15 07:03:42;;;;;;;6.53;5.30;;;4.00;99.90;;;;;;5017459;28;20469;-75
2023/01/15 07:06:12;;;;;;;2.23;1.83;;;4.00;99.90;;;;;;5011722;28;20916;-74
2023/01/15 07:08:39;;;;;;;2.50;1.90;;;4.10;99.90;;;;;;5021912;28;20553;-75
2023/01/15 07:11:08;;;;;;;4.43;2.07;;;4.10;99.90;;;;;;5016702;28;20500;-75
2023/01/15 07:13:36;;;;;;;60.13;31.00;;;4.20;99.90;;;;;;5029370;28;20863;-75
2023/01/15 07:16:04;;;;;;;4.40;1.47;;;4.20;99.90;;;;;;5032511;28;20484;-74
2023/01/15 07:18:33;;;;;;;1.67;1.00;;;4.20;99.90;;;;;;5025202;28;20554;-75
2023/01/15 07:21:00;;;;;;;13.83;9.00;;;4.20;99.90;;;;;;5022543;28;20897;-75
2023/01/15 07:23:28;;;;;;;1.77;1.67;;;4.20;99.90;;;;;;5019907;28;20652;-75
2023/01/15 07:25:55;;;;;;;29.50;14.87;;;4.20;99.90;;;;;;5026490;28;20523;-75
2023/01/15 07:28:23;;;;;;;36.43;23.27;;;4.20;99.90;;;;;;5021543;28;20505;-75
2023/01/15 07:30:50;;;;;;;56.30;33.00;;;4.10;99.90;;;;;;5022646;28;20480;-75
2023/01/15 07:33:17;;;;;;;6.43;5.17;;;4.20;99.90;;;;;;5020857;28;20493;-75
2023/01/15 07:35:45;;;;;;;1.13;1.03;;;4.20;99.90;;;;;;5010922;28;20501;-75
2023/01/15 07:38:12;;;;;;;2.97;1.97;;;4.20;99.90;;;;;;5014790;28;20522;-75
2023/01/15 07:40:39;;;;;;;4.37;1.70;;;4.20;99.90;;;;;;5012252;28;20548;-75
2023/01/15 07:51:21;;;;;;;3.33;2.60;;;4.10;99.90;;;;;;5028330;28;20448;-75
2023/01/15 07:53:48;;;;;;;4.80;4.40;;;4.00;99.90;;;;;;5020195;28;20494;-74
2023/01/15 07:56:15;;;;;;;6.13;2.73;;;4.00;99.90;;;;;;5026845;28;20457;-75
2023/01/15 07:58:47;;;;;;;4.50;2.73;;;4.00;99.90;;;;;;5022025;28;20517;-73
2023/01/15 08:01:15;;;;;;;11.40;6.87;;;4.00;99.90;;;;;;5026008;28;20814;-73
2023/01/15 08:03:42;;;;;;;4.37;3.90;;;4.00;99.90;;;;;;5024622;28;20450;-73
2023/01/15 08:06:09;;;;;;;3.17;2.33;;;4.00;99.90;;;;;;5021344;28;20497;-74
2023/01/15 08:08:37;;;;;;;19.33;15.70;;;4.00;99.90;;;;;;5024249;28;20915;-73
2023/01/15 08:16:35;;;;;;;21.87;20.03;;;4.20;99.90;;;;;;5026134;28;20456;-74
2023/01/15 08:19:02;;;;;;;3.80;2.40;;;4.20;99.90;;;;;;5022263;28;20555;-73
2023/01/15 08:21:29;;;;;;;8.73;6.30;;;4.20;99.90;;;;;;5020419;28;20602;-74
2023/01/15 08:23:58;;;;;;;40.03;31.23;;;4.20;99.90;;;;;;5017326;28;20571;-74
2023/01/15 08:26:24;;;;;;;10.30;9.23;;;4.30;99.90;;;;;;5029837;28;20556;-74
2023/01/15 08:28:51;;;;;;;3.43;3.10;;;4.40;99.90;;;;;;5027032;28;20503;-74
2023/01/15 08:31:18;;;;;;;11.10;9.50;;;4.60;99.90;;;;;;5021278;28;20869;-74
2023/01/15 08:33:45;;;;;;;5.07;4.60;;;4.60;99.90;;;;;;5021656;28;20500;-74
2023/01/15 08:36:13;;;;;;;6.83;2.97;;;4.80;99.90;;;;;;5016786;28;20502;-74
2023/01/15 08:38:40;;;;;;;3.50;2.13;;;4.90;99.90;;;;;;5010144;28;20519;-74
2023/01/15 08:41:08;;;;;;;3.30;2.20;;;5.00;99.90;;;;;;5014448;28;20567;-74
2023/01/15 08:43:35;;;;;;;2.33;2.08;;;5.00;99.90;;;;;;5015635;28;20488;-74
2023/01/15 08:46:04;;;;;;;17.80;6.10;;;5.00;99.90;;;;;;5016886;28;20292;-75
2023/01/15 08:48:32;;;;;;;8.43;4.63;;;5.00;99.90;;;;;;5022665;28;20729;-74
2023/01/15 08:50:59;;;;;;;10.90;6.83;;;5.00;99.90;;;;;;5018230;28;20964;-75
2023/01/15 08:53:28;;;;;;;9.50;4.40;;;5.10;99.90;;;;;;5020261;28;20501;-74
2023/01/15 08:55:55;;;;;;;4.50;2.65;;;5.20;99.90;;;;;;5019138;28;20462;-74
2023/01/15 08:58:23;;;;;;;3.47;3.00;;;5.30;99.90;;;;;;5022857;28;20234;-74
2023/01/15 09:00:50;;;;;;;3.97;3.10;;;5.20;99.90;;;;;;5018694;28;20552;-74
2023/01/15 09:03:18;;;;;;;3.23;2.47;;;5.30;99.90;;;;;;5024751;28;20597;-74
2023/01/15 09:05:45;;;;;;;3.67;2.57;;;5.40;99.90;;;;;;5027617;28;20464;-74
2023/01/15 09:08:11;;;;;;;3.88;3.15;;;5.40;99.90;;;;;;5019952;28;20489;-74
2023/01/15 09:10:38;;;;;;;3.33;2.70;;;5.50;99.90;;;;;;5022461;28;20625;-75
2023/01/15 09:13:05;;;;;;;5.17;3.30;;;5.50;99.90;;;;;;5023272;28;20559;-75
2023/01/15 09:15:34;;;;;;;4.40;2.30;;;5.40;99.90;;;;;;5019534;28;20497;-75
2023/01/15 09:18:01;;;;;;;8.20;4.50;;;5.30;99.90;;;;;;5021155;28;20485;-75
2023/01/15 09:20:28;;;;;;;5.90;2.87;;;5.30;99.90;;;;;;5028021;28;20473;-75
2023/01/15 09:22:55;;;;;;;2.97;2.67;;;5.20;99.90;;;;;;5019170;28;20494;-75
2023/01/15 09:25:23;;;;;;;2.70;1.90;;;5.20;99.90;;;;;;5018045;28;20500;-73
2023/01/15 09:27:50;;;;;;;3.63;3.17;;;5.20;99.90;;;;;;5016259;28;22393;-74
2023/01/15 09:30:20;;;;;;;4.67;2.83;;;5.20;99.90;;;;;;5012023;28;20499;-74
2023/01/15 09:32:49;;;;;;;2.87;2.17;;;5.30;99.90;;;;;;5021811;28;20534;-74
2023/01/15 09:35:16;;;;;;;5.73;3.83;;;5.20;99.90;;;;;;5015448;28;20520;-73
2023/01/15 09:37:43;;;;;;;13.40;4.60;;;5.30;99.90;;;;;;5012188;28;20513;-74
2023/01/15 09:40:29;;;;;;;3.90;2.17;;;5.40;99.90;;;;;;5009159;28;20510;-73
2023/01/15 09:43:02;;;;;;;2.97;2.00;;;5.40;99.90;;;;;;5008342;28;20584;-74
2023/01/15 09:45:41;;;;;;;5.60;3.80;;;5.50;99.90;;;;;;5015440;28;20238;-74
2023/01/15 09:48:31;;;;;;;30.67;14.40;;;5.60;99.90;;;;;;5008001;28;20969;-74
2023/01/15 09:51:12;;;;;;;10.80;6.90;;;5.60;99.90;;;;;;5006831;28;20948;-74
2023/01/15 09:53:53;;;;;;;8.30;5.17;;;5.80;99.90;;;;;;5010278;28;20521;-74
2023/01/15 09:56:23;;;;;;;5.63;3.17;;;5.70;99.90;;;;;;5009642;28;21003;-74
2023/01/15 09:58:52;;;;;;;8.43;2.67;;;5.80;99.90;;;;;;5014209;28;20519;-76
2023/01/15 10:01:24;;;;;;;5.80;2.67;;;5.90;99.90;;;;;;5009392;28;20204;-76
2023/01/15 10:04:01;;;;;;;13.05;8.65;;;5.90;99.90;;;;;;5009364;28;20988;-76
2023/01/15 10:06:31;;;;;;;4.20;3.37;;;6.10;99.90;;;;;;5013439;28;20289;-76
2023/01/15 10:09:04;;;;;;;4.13;2.40;;;6.00;99.90;;;;;;5007226;28;20494;-76
2023/01/15 10:14:38;;;;;;;2.03;1.20;;;5.90;99.90;;;;;;5013198;28;20421;-76
2023/01/15 10:17:18;;;;;;;2.10;1.50;;;5.90;99.90;;;;;;5018588;28;20488;-76
2023/01/15 10:19:46;;;;;;;4.50;1.85;;;6.00;99.90;;;;;;5016795;28;20878;-76
2023/01/15 10:22:27;;;;;;;2.07;1.87;;;6.20;99.90;;;;;;5014265;28;20269;-73
2023/01/15 10:24:57;;;;;;;3.07;2.60;;;6.30;99.90;;;;;;5018292;28;20583;-74
2023/01/15 10:27:28;;;;;;;4.50;4.10;;;6.30;99.90;;;;;;5019526;28;20506;-74
2023/01/15 10:30:04;;;;;;;5.33;4.87;;;6.40;99.90;;;;;;5014342;28;20550;-74
2023/01/15 10:32:41;;;;;;;5.27;2.90;;;6.50;99.90;;;;;;5020234;28;20508;-74
2023/01/15 10:35:30;;;;;;;3.53;2.43;;;6.30;99.90;;;;;;5022756;28;20481;-74
2023/01/15 10:38:02;;;;;;;3.10;1.77;;;6.20;99.90;;;;;;5005392;28;20572;-74
2023/01/15 10:40:58;;;;;;;2.27;1.93;;;6.10;99.90;;;;;;5015104;28;20532;-74
2023/01/15 10:43:35;;;;;;;2.57;1.50;;;6.10;99.90;;;;;;5016554;28;20518;-75
2023/01/15 10:46:08;;;;;;;2.58;1.58;;;6.00;99.90;;;;;;5015289;28;20872;-74
2023/01/15 10:48:38;;;;;;;2.93;1.30;;;5.90;99.90;;;;;;5023672;28;20366;-74
2023/01/15 10:51:16;;;;;;;2.93;1.60;;;5.80;99.90;;;;;;5010918;28;20920;-74
2023/01/15 10:53:49;;;;;;;4.53;1.73;;;5.90;99.90;;;;;;5011790;28;21062;-75
2023/01/15 10:56:25;;;;;;;3.97;2.87;;;6.00;99.90;;;;;;5010671;28;20490;-75
2023/01/15 10:58:58;;;;;;;3.30;3.07;;;6.00;99.90;;;;;;5014214;28;20573;-75
2023/01/15 11:01:27;;;;;;;3.97;2.60;;;6.10;99.90;;;;;;5008077;28;20498;-75
2023/01/15 11:03:54;;;;;;;2.57;2.23;;;6.20;99.90;;;;;;5007875;28;20462;-75
2023/01/15 11:06:24;;;;;;;2.20;1.90;;;6.30;99.90;;;;;;5009566;28;20505;-75
2023/01/15 11:08:53;;;;;;;4.20;2.30;;;6.30;99.90;;;;;;5009603;28;20833;-75
2023/01/15 11:19:39;;;;;;;2.67;2.47;;;6.50;99.90;;;;;;5017666;28;20314;-75
2023/01/15 11:22:11;;;;;;;2.17;1.93;;;6.40;99.90;;;;;;5014459;28;20466;-74
2023/01/15 11:24:45;;;;;;;1.93;1.80;;;6.40;99.90;;;;;;5016301;28;21035;-75
2023/01/15 11:27:16;;;;;;;2.30;2.10;;;6.50;99.90;;;;;;5014981;28;20883;-74
2023/01/15 11:29:45;;;;;;;2.70;2.40;;;6.50;99.90;;;;;;5017770;28;20454;-74
2023/01/15 11:32:23;;;;;;;2.10;1.60;;;6.50;99.90;;;;;;5011927;28;20470;-75
2023/01/15 11:34:54;;;;;;;2.60;1.80;;;6.60;99.90;;;;;;5010727;28;20506;-75
2023/01/15 11:37:22;;;;;;;3.15;1.80;;;6.50;99.90;;;;;;5007806;28;20497;-75
2023/01/15 11:39:54;;;;;;;4.07;2.27;;;6.50;99.90;;;;;;5005256;28;20688;-75
2023/01/15 11:50:50;;;;;;;3.03;1.97;;;6.50;99.90;;;;;;5004447;28;21098;-75
2023/01/15 11:53:21;;;;;;;3.85;1.95;;;6.50;99.90;;;;;;5004263;28;20496;-75
2023/01/15 11:55:54;;;;;;;3.63;2.40;;;6.40;99.90;;;;;;5011376;28;20285;-80
2023/01/15 11:58:23;;;;;;;5.30;2.30;;;6.40;99.90;;;;;;5014656;28;20899;-75
2023/01/15 12:00:52;;;;;;;3.20;2.33;;;6.30;99.90;;;;;;5019499;28;20556;-75
2023/01/15 12:03:26;;;;;;;1.73;1.40;;;6.30;99.90;;;;;;5017736;28;20507;-77
2023/01/15 12:06:01;;;;;;;4.40;1.67;;;6.20;99.90;;;;;;5013339;28;20465;-76
2023/01/15 12:08:49;;;;;;;1.43;1.20;;;6.20;99.90;;;;;;5020336;28;20953;-75
2023/01/15 12:11:40;;;;;;;2.33;1.90;;;6.20;99.90;;;;;;5021489;28;20484;-75
2023/01/15 12:14:43;;;;;;;4.50;2.50;;;6.20;99.90;;;;;;5014359;28;20560;-75
2023/01/15 12:17:25;;;;;;;4.07;3.43;;;6.10;99.90;;;;;;5012023;28;20480;-76
2023/01/15 12:19:59;;;;;;;3.30;1.90;;;6.10;99.90;;;;;;5018865;28;20578;-76
2023/01/15 12:22:43;;;;;;;1.70;1.60;;;5.90;99.90;;;;;;5015481;28;20471;-76
2023/01/15 12:25:37;;;;;;;3.60;2.20;;;5.80;99.90;;;;;;5013914;28;20937;-76
2023/01/15 12:28:11;;;;;;;2.83;2.53;;;5.80;99.90;;;;;;5014346;28;20500;-76
2023/01/15 12:30:44;;;;;;;3.47;2.17;;;5.80;99.90;;;;;;5014852;28;21581;-76
2023/01/15 12:33:22;;;;;;;3.10;2.10;;;5.80;99.90;;;;;;5011814;28;20482;-76
2023/01/15 12:35:56;;;;;;;3.07;2.60;;;5.80;99.90;;;;;;5014255;28;20489;-76
2023/01/15 12:38:36;;;;;;;3.87;2.50;;;5.60;99.90;;;;;;5007517;28;21282;-75
2023/01/15 12:41:10;;;;;;;2.93;2.70;;;5.70;99.90;;;;;;5013054;28;20528;-75
2023/01/15 12:46:27;;;;;;;11.90;6.32;;;5.70;99.90;;;;;;5007644;28;20449;-75
2023/01/15 12:49:03;;;;;;;9.50;6.70;;;5.70;99.90;;;;;;5007742;28;20266;-75
2023/01/15 12:51:35;;;;;;;5.30;4.23;;;5.70;99.90;;;;;;5013492;28;20537;-75
2023/01/15 12:54:07;;;;;;;4.40;3.97;;;5.60;99.90;;;;;;5015213;28;20535;-76
2023/01/15 12:56:45;;;;;;;6.43;4.93;;;5.50;99.90;;;;;;5017701;28;20506;-75
2023/01/15 12:59:18;;;;;;;8.27;3.40;;;5.50;99.90;;;;;;5013797;28;20518;-75
2023/01/15 13:01:52;;;;;;;8.40;5.13;;;5.40;99.90;;;;;;5012888;28;20533;-75
2023/01/15 13:04:24;;;;;;;5.18;4.57;;;5.40;99.90;;;;;;5011088;28;20517;-75
2023/01/15 13:06:56;;;;;;;5.33;3.37;;;5.40;99.90;;;;;;5011599;28;20685;-75
2023/01/15 13:09:33;;;;;;;8.60;4.97;;;5.40;99.90;;;;;;5006775;28;21009;-75
2023/01/15 13:12:02;;;;;;;4.43;3.90;;;5.40;99.90;;;;;;5011505;28;20505;-76
2023/01/15 13:14:29;;;;;;;7.50;6.13;;;5.40;99.90;;;;;;5018638;28;20555;-77
2023/01/15 13:17:03;;;;;;;8.07;5.60;;;5.50;99.90;;;;;;5015447;28;20476;-78
2023/01/15 13:19:40;;;;;;;10.30;8.40;;;5.40;99.90;;;;;;5013820;28;20488;-73
2023/01/15 13:22:13;;;;;;;10.10;7.07;;;5.40;99.90;;;;;;5016946;28;20445;-74
2023/01/15 13:25:13;;;;;;;6.95;5.30;;;5.40;99.90;;;;;;5009094;28;20482;-74
2023/01/15 13:27:56;;;;;;;8.10;4.80;;;5.40;99.90;;;;;;5011304;28;20204;-74
2023/01/15 13:30:52;;;;;;;5.03;3.70;;;5.40;99.90;;;;;;5008073;28;20490;-74
2023/01/15 13:33:27;;;;;;;4.00;3.40;;;5.40;99.90;;;;;;5010417;28;20519;-74
2023/01/15 13:36:00;;;;;;;13.83;4.30;;;5.50;99.90;;;;;;5018076;28;20507;-74
2023/01/15 13:38:30;;;;;;;6.33;4.03;;;5.50;99.90;;;;;;5019283;28;20513;-75
2023/01/15 13:40:58;;;;;;;3.83;3.40;;;5.50;99.90;;;;;;5017302;28;20486;-74
2023/01/15 13:43:38;;;;;;;5.60;4.33;;;5.60;99.90;;;;;;5007570;28;21056;-75
2023/01/15 13:46:10;;;;;;;4.03;3.27;;;5.60;99.90;;;;;;5006567;28;20472;-76
2023/01/15 13:48:42;;;;;;;3.50;3.17;;;5.70;99.90;;;;;;5009264;28;20821;-76
2023/01/15 13:51:27;;;;;;;4.97;3.53;;;5.70;99.90;;;;;;5009613;28;20553;-76
2023/01/15 13:53:56;;;;;;;3.50;2.80;;;5.80;99.90;;;;;;5013754;28;20601;-76
2023/01/15 13:56:28;;;;;;;3.97;3.17;;;5.80;99.90;;;;;;5010100;28;20586;-76
2023/01/15 13:58:59;;;;;;;4.37;3.13;;;5.80;99.90;;;;;;5009381;28;21870;-76
2023/01/15 14:01:32;;;;;;;3.67;2.10;;;5.80;99.90;;;;;;5010902;28;20616;-76
2023/01/15 14:04:07;;;;;;;3.30;2.72;;;5.80;99.90;;;;;;5021837;28;20475;-76